sensor_id;sensor_type;location;lat;lon;timestamp;P1;durP1;ratioP1;P2;durP2;ratioP2
21804;SDS011;11064;47.102;15.452;2023-08-21T04:03:10;25.45;;;20.08;;
21804;SDS011;11064;47.102;15.452;2023-08-21T04:05:36;23.27;;;19.63;;
21804;SDS011;11064;47.102;15.452;2023-08-21T04:08:02;26.58;;;21.25;;
21804;SDS011;11064;47.102;15.452;2023-08-21T04:10:28;23.40;;;20.42;;
21804;SDS011;11064;47.102;15.452;2023-08-21T04:12:54;24.85;;;19.67;;
21804;SDS011;11064;47.102;15.452;2023-08-21T04:15:20;22.25;;;19.85;;
21804;SDS011;11064;47.102;15.452;2023-08-21T04:17:46;24.33;;;19.85;;
21804;SDS011;11064;47.102;15.452;2023-08-21T04:20:12;23.83;;;19.48;;
21804;SDS011;11064;47.102;15.452;2023-08-21T04:22:37;22.75;;;20.10;;
21804;SDS011;11064;47.102;15.452;2023-08-21T04:25:03;25.00;;;19.98;;
21804;SDS011;11064;47.102;15.452;2023-08-21T04:27:30;26.00;;;20.15;;
21804;SDS011;11064;47.102;15.452;2023-08-21T04:29:56;27.10;;;20.05;;
21804;SDS011;11064;47.102;15.452;2023-08-21T04:32:22;22.40;;;19.42;;
21804;SDS011;11064;47.102;15.452;2023-08-21T04:34:48;21.05;;;18.73;;
21804;SDS011;11064;47.102;15.452;2023-08-21T04:37:13;23.27;;;18.70;;
21804;SDS011;11064;47.102;15.452;2023-08-21T04:39:40;22.13;;;18.75;;
21804;SDS011;11064;47.102;15.452;2023-08-21T04:42:06;26.42;;;19.55;;
21804;SDS011;11064;47.102;15.452;2023-08-21T04:44:31;26.10;;;19.50;;
21804;SDS011;11064;47.102;15.452;2023-08-21T04:46:57;22.70;;;19.88;;
21804;SDS011;11064;47.102;15.452;2023-08-21T04:49:43;22.50;;;18.70;;
21804;SDS011;11064;47.102;15.452;2023-08-21T04:52:09;23.77;;;19.10;;
21804;SDS011;11064;47.102;15.452;2023-08-21T04:54:35;20.73;;;18.52;;
21804;SDS011;11064;47.102;15.452;2023-08-21T04:57:00;21.02;;;18.48;;
21804;SDS011;11064;47.102;15.452;2023-08-21T04:59:27;23.33;;;18.58;;
21804;SDS011;11064;47.102;15.452;2023-08-21T05:01:52;21.30;;;18.98;;
21804;SDS011;11064;47.102;15.452;2023-08-21T05:04:18;21.60;;;17.90;;
21804;SDS011;11064;47.102;15.452;2023-08-21T05:06:44;23.85;;;18.45;;
21804;SDS011;11064;47.102;15.452;2023-08-21T05:09:10;21.80;;;18.52;;
21804;SDS011;11064;47.102;15.452;2023-08-21T05:11:35;21.35;;;17.60;;
21804;SDS011;11064;47.102;15.452;2023-08-21T05:14:01;20.77;;;17.90;;
21804;SDS011;11064;47.102;15.452;2023-08-21T05:16:27;21.58;;;17.77;;
21804;SDS011;11064;47.102;15.452;2023-08-21T05:18:53;20.60;;;17.48;;
21804;SDS011;11064;47.102;15.452;2023-08-21T05:21:19;21.30;;;18.02;;
21804;SDS011;11064;47.102;15.452;2023-08-21T05:23:45;22.83;;;17.40;;
21804;SDS011;11064;47.102;15.452;2023-08-21T05:26:11;19.63;;;17.17;;
21804;SDS011;11064;47.102;15.452;2023-08-21T05:28:37;18.85;;;16.48;;
21804;SDS011;11064;47.102;15.452;2023-08-21T05:31:02;18.02;;;16.10;;
21804;SDS011;11064;47.102;15.452;2023-08-21T05:33:28;18.73;;;16.48;;
21804;SDS011;11064;47.102;15.452;2023-08-21T05:35:56;19.00;;;15.95;;
21804;SDS011;11064;47.102;15.452;2023-08-21T05:38:22;18.98;;;15.43;;
21804;SDS011;11064;47.102;15.452;2023-08-21T05:40:48;20.27;;;15.63;;
21804;SDS011;11064;47.102;15.452;2023-08-21T05:43:15;20.80;;;16.08;;
21804;SDS011;11064;47.102;15.452;2023-08-21T05:45:42;23.92;;;15.70;;
21804;SDS011;11064;47.102;15.452;2023-08-21T05:48:08;21.55;;;15.30;;
21804;SDS011;11064;47.102;15.452;2023-08-21T05:50:34;20.33;;;16.02;;
21804;SDS011;11064;47.102;15.452;2023-08-21T05:53:05;17.15;;;15.35;;
21804;SDS011;11064;47.102;15.452;2023-08-21T05:55:31;17.20;;;15.40;;
21804;SDS011;11064;47.102;15.452;2023-08-21T05:57:57;19.70;;;15.63;;
21804;SDS011;11064;47.102;15.452;2023-08-21T06:00:23;17.27;;;14.77;;
21804;SDS011;11064;47.102;15.452;2023-08-21T06:02:49;16.95;;;15.07;;
21804;SDS011;11064;47.102;15.452;2023-08-21T06:05:15;22.40;;;15.10;;
21804;SDS011;11064;47.102;15.452;2023-08-21T06:07:41;18.50;;;15.15;;
21804;SDS011;11064;47.102;15.452;2023-08-21T06:10:08;18.15;;;14.82;;
21804;SDS011;11064;47.102;15.452;2023-08-21T06:12:38;17.70;;;14.10;;
21804;SDS011;11064;47.102;15.452;2023-08-21T06:15:07;17.55;;;14.50;;
21804;SDS011;11064;47.102;15.452;2023-08-21T06:17:34;17.15;;;14.32;;
21804;SDS011;11064;47.102;15.452;2023-08-21T06:20:00;17.23;;;14.45;;
21804;SDS011;11064;47.102;15.452;2023-08-21T06:22:28;19.73;;;14.60;;
21804;SDS011;11064;47.102;15.452;2023-08-21T06:24:53;18.08;;;15.02;;
21804;SDS011;11064;47.102;15.452;2023-08-21T06:27:19;19.42;;;14.23;;
21804;SDS011;11064;47.102;15.452;2023-08-21T06:29:45;23.60;;;14.65;;
21804;SDS011;11064;47.102;15.452;2023-08-21T06:32:11;20.60;;;14.85;;
21804;SDS011;11064;47.102;15.452;2023-08-21T06:34:37;17.25;;;13.85;;
21804;SDS011;11064;47.102;15.452;2023-08-21T06:37:03;23.73;;;14.77;;
21804;SDS011;11064;47.102;15.452;2023-08-21T06:39:28;21.15;;;14.13;;
21804;SDS011;11064;47.102;15.452;2023-08-21T06:41:55;17.40;;;14.07;;
21804;SDS011;11064;47.102;15.452;2023-08-21T06:44:22;24.02;;;14.60;;
21804;SDS011;11064;47.102;15.452;2023-08-21T06:46:48;20.73;;;13.88;;
21804;SDS011;11064;47.102;15.452;2023-08-21T06:49:14;19.52;;;13.75;;
21804;SDS011;11064;47.102;15.452;2023-08-21T06:51:39;16.75;;;13.88;;
21804;SDS011;11064;47.102;15.452;2023-08-21T06:54:05;23.48;;;13.88;;
21804;SDS011;11064;47.102;15.452;2023-08-21T06:56:31;17.83;;;13.65;;
21804;SDS011;11064;47.102;15.452;2023-08-21T06:58:57;18.95;;;13.63;;
21804;SDS011;11064;47.102;15.452;2023-08-21T07:01:23;30.05;;;14.73;;
21804;SDS011;11064;47.102;15.452;2023-08-21T07:03:49;45.50;;;16.30;;
21804;SDS011;11064;47.102;15.452;2023-08-21T07:06:15;18.55;;;13.43;;
21804;SDS011;11064;47.102;15.452;2023-08-21T07:08:40;20.42;;;13.65;;
21804;SDS011;11064;47.102;15.452;2023-08-21T07:11:07;14.80;;;13.23;;
21804;SDS011;11064;47.102;15.452;2023-08-21T07:13:35;16.33;;;13.45;;
21804;SDS011;11064;47.102;15.452;2023-08-21T07:16:01;18.77;;;13.82;;
21804;SDS011;11064;47.102;15.452;2023-08-21T07:18:28;16.73;;;13.32;;
21804;SDS011;11064;47.102;15.452;2023-08-21T07:20:55;16.13;;;12.93;;
21804;SDS011;11064;47.102;15.452;2023-08-21T07:23:21;14.98;;;13.02;;
21804;SDS011;11064;47.102;15.452;2023-08-21T07:25:47;15.57;;;12.70;;
21804;SDS011;11064;47.102;15.452;2023-08-21T07:28:13;14.32;;;12.73;;
21804;SDS011;11064;47.102;15.452;2023-08-21T07:30:39;13.88;;;12.30;;
21804;SDS011;11064;47.102;15.452;2023-08-21T07:33:05;15.93;;;13.30;;
21804;SDS011;11064;47.102;15.452;2023-08-21T07:35:31;29.60;;;14.55;;
21804;SDS011;11064;47.102;15.452;2023-08-21T07:37:57;17.77;;;13.43;;
21804;SDS011;11064;47.102;15.452;2023-08-21T07:40:24;18.85;;;12.98;;
21804;SDS011;11064;47.102;15.452;2023-08-21T07:42:50;15.88;;;12.73;;
21804;SDS011;11064;47.102;15.452;2023-08-21T07:45:16;15.63;;;11.82;;
21804;SDS011;11064;47.102;15.452;2023-08-21T07:47:42;20.45;;;12.65;;
21804;SDS011;11064;47.102;15.452;2023-08-21T07:50:08;16.67;;;12.57;;
21804;SDS011;11064;47.102;15.452;2023-08-21T07:52:34;13.00;;;11.60;;
21804;SDS011;11064;47.102;15.452;2023-08-21T07:55:01;16.17;;;11.95;;
21804;SDS011;11064;47.102;15.452;2023-08-21T07:57:28;18.52;;;12.23;;
21804;SDS011;11064;47.102;15.452;2023-08-21T07:59:54;17.80;;;12.48;;
21804;SDS011;11064;47.102;15.452;2023-08-21T08:02:20;14.48;;;11.90;;
21804;SDS011;11064;47.102;15.452;2023-08-21T08:04:46;14.85;;;11.65;;
21804;SDS011;11064;47.102;15.452;2023-08-21T08:07:12;15.43;;;11.88;;
21804;SDS011;11064;47.102;15.452;2023-08-21T08:09:38;16.77;;;12.30;;
21804;SDS011;11064;47.102;15.452;2023-08-21T08:12:04;18.20;;;12.32;;
21804;SDS011;11064;47.102;15.452;2023-08-21T08:14:31;17.17;;;12.48;;
21804;SDS011;11064;47.102;15.452;2023-08-21T08:16:56;15.75;;;12.35;;
21804;SDS011;11064;47.102;15.452;2023-08-21T08:19:22;14.70;;;12.23;;
21804;SDS011;11064;47.102;15.452;2023-08-21T08:21:48;13.80;;;12.05;;
21804;SDS011;11064;47.102;15.452;2023-08-21T08:24:14;14.38;;;11.57;;
21804;SDS011;11064;47.102;15.452;2023-08-21T08:26:40;14.00;;;10.77;;
21804;SDS011;11064;47.102;15.452;2023-08-21T08:29:08;14.07;;;10.50;;
21804;SDS011;11064;47.102;15.452;2023-08-21T08:31:34;12.00;;;10.80;;
21804;SDS011;11064;47.102;15.452;2023-08-21T08:34:00;13.93;;;11.27;;
21804;SDS011;11064;47.102;15.452;2023-08-21T08:36:26;17.13;;;11.27;;
21804;SDS011;11064;47.102;15.452;2023-08-21T08:38:52;14.70;;;10.75;;
21804;SDS011;11064;47.102;15.452;2023-08-21T08:41:24;14.88;;;11.23;;
21804;SDS011;11064;47.102;15.452;2023-08-21T08:43:58;13.07;;;10.80;;
21804;SDS011;11064;47.102;15.452;2023-08-21T08:46:26;14.25;;;11.60;;
21804;SDS011;11064;47.102;15.452;2023-08-21T08:48:54;14.82;;;11.25;;
21804;SDS011;11064;47.102;15.452;2023-08-21T08:51:22;13.52;;;11.20;;
21804;SDS011;11064;47.102;15.452;2023-08-21T08:53:49;11.52;;;10.30;;
21804;SDS011;11064;47.102;15.452;2023-08-21T08:56:16;12.85;;;10.60;;
21804;SDS011;11064;47.102;15.452;2023-08-21T08:58:42;13.13;;;9.88;;
21804;SDS011;11064;47.102;15.452;2023-08-21T09:01:08;14.20;;;9.80;;
21804;SDS011;11064;47.102;15.452;2023-08-21T09:03:37;13.40;;;9.43;;
21804;SDS011;11064;47.102;15.452;2023-08-21T09:06:03;11.63;;;9.23;;
21804;SDS011;11064;47.102;15.452;2023-08-21T09:08:29;10.90;;;7.95;;
21804;SDS011;11064;47.102;15.452;2023-08-21T09:10:55;8.10;;;7.30;;
21804;SDS011;11064;47.102;15.452;2023-08-21T09:13:21;11.00;;;7.68;;
21804;SDS011;11064;47.102;15.452;2023-08-21T09:15:47;8.88;;;7.47;;
21804;SDS011;11064;47.102;15.452;2023-08-21T09:18:18;11.55;;;8.57;;
21804;SDS011;11064;47.102;15.452;2023-08-21T09:20:43;8.85;;;7.95;;
21804;SDS011;11064;47.102;15.452;2023-08-21T09:23:16;15.05;;;8.63;;
21804;SDS011;11064;47.102;15.452;2023-08-21T09:25:44;10.98;;;9.27;;
21804;SDS011;11064;47.102;15.452;2023-08-21T09:28:14;10.30;;;9.10;;
21804;SDS011;11064;47.102;15.452;2023-08-21T09:30:48;10.65;;;8.63;;
21804;SDS011;11064;47.102;15.452;2023-08-21T09:33:23;9.45;;;8.25;;
21804;SDS011;11064;47.102;15.452;2023-08-21T09:35:52;9.60;;;8.48;;
21804;SDS011;11064;47.102;15.452;2023-08-21T09:38:19;9.27;;;8.35;;
21804;SDS011;11064;47.102;15.452;2023-08-21T09:40:52;10.38;;;8.20;;
21804;SDS011;11064;47.102;15.452;2023-08-21T09:43:20;9.35;;;8.10;;
21804;SDS011;11064;47.102;15.452;2023-08-21T09:45:47;8.90;;;7.07;;
21804;SDS011;11064;47.102;15.452;2023-08-21T09:48:17;9.55;;;7.60;;
21804;SDS011;11064;47.102;15.452;2023-08-21T09:50:44;8.13;;;7.43;;
21804;SDS011;11064;47.102;15.452;2023-08-21T09:53:11;8.48;;;7.40;;
21804;SDS011;11064;47.102;15.452;2023-08-21T09:55:38;10.90;;;7.00;;
21804;SDS011;11064;47.102;15.452;2023-08-21T09:58:05;11.68;;;7.18;;
21804;SDS011;11064;47.102;15.452;2023-08-21T10:00:33;9.23;;;7.15;;
21804;SDS011;11064;47.102;15.452;2023-08-21T10:03:07;12.38;;;7.05;;
21804;SDS011;11064;47.102;15.452;2023-08-21T10:05:36;8.50;;;6.75;;
21804;SDS011;11064;47.102;15.452;2023-08-21T10:08:03;12.30;;;7.40;;
21804;SDS011;11064;47.102;15.452;2023-08-21T10:10:31;7.55;;;6.82;;
21804;SDS011;11064;47.102;15.452;2023-08-21T10:12:59;14.15;;;8.27;;
21804;SDS011;11064;47.102;15.452;2023-08-21T10:15:26;13.55;;;8.70;;
21804;SDS011;11064;47.102;15.452;2023-08-21T10:17:53;13.70;;;8.23;;
21804;SDS011;11064;47.102;15.452;2023-08-21T10:20:23;8.48;;;7.57;;
21804;SDS011;11064;47.102;15.452;2023-08-21T10:22:54;11.35;;;8.25;;
21804;SDS011;11064;47.102;15.452;2023-08-21T10:25:26;9.68;;;8.27;;
21804;SDS011;11064;47.102;15.452;2023-08-21T10:27:53;10.73;;;8.35;;
21804;SDS011;11064;47.102;15.452;2023-08-21T10:30:27;9.65;;;7.60;;
21804;SDS011;11064;47.102;15.452;2023-08-21T10:32:54;11.32;;;7.90;;
21804;SDS011;11064;47.102;15.452;2023-08-21T10:35:22;11.35;;;7.90;;
21804;SDS011;11064;47.102;15.452;2023-08-21T10:38:08;9.70;;;8.02;;
21804;SDS011;11064;47.102;15.452;2023-08-21T10:40:39;11.07;;;8.55;;
21804;SDS011;11064;47.102;15.452;2023-08-21T10:43:36;10.77;;;8.45;;
21804;SDS011;11064;47.102;15.452;2023-08-21T10:46:04;10.23;;;8.18;;
21804;SDS011;11064;47.102;15.452;2023-08-21T10:48:30;11.85;;;8.45;;
21804;SDS011;11064;47.102;15.452;2023-08-21T10:50:58;11.05;;;8.48;;
21804;SDS011;11064;47.102;15.452;2023-08-21T10:53:30;11.25;;;8.73;;
21804;SDS011;11064;47.102;15.452;2023-08-21T10:55:57;11.55;;;8.70;;
21804;SDS011;11064;47.102;15.452;2023-08-21T10:58:26;11.05;;;8.43;;
21804;SDS011;11064;47.102;15.452;2023-08-21T11:01:01;9.65;;;8.30;;
21804;SDS011;11064;47.102;15.452;2023-08-21T11:03:26;12.50;;;8.60;;
21804;SDS011;11064;47.102;15.452;2023-08-21T11:06:02;12.32;;;8.23;;
21804;SDS011;11064;47.102;15.452;2023-08-21T11:08:29;13.18;;;8.45;;
21804;SDS011;11064;47.102;15.452;2023-08-21T11:10:58;14.77;;;8.38;;
21804;SDS011;11064;47.102;15.452;2023-08-21T11:13:24;10.07;;;8.57;;
21804;SDS011;11064;47.102;15.452;2023-08-21T11:15:57;10.48;;;7.93;;
21804;SDS011;11064;47.102;15.452;2023-08-21T11:18:29;9.00;;;8.10;;
21804;SDS011;11064;47.102;15.452;2023-08-21T11:21:02;11.13;;;8.20;;
21804;SDS011;11064;47.102;15.452;2023-08-21T11:26:02;9.45;;;7.70;;
21804;SDS011;11064;47.102;15.452;2023-08-21T11:28:29;9.00;;;7.63;;
21804;SDS011;11064;47.102;15.452;2023-08-21T11:30:56;11.75;;;7.38;;
21804;SDS011;11064;47.102;15.452;2023-08-21T11:33:22;7.72;;;6.93;;
21804;SDS011;11064;47.102;15.452;2023-08-21T11:35:49;8.25;;;6.78;;
21804;SDS011;11064;47.102;15.452;2023-08-21T11:38:19;9.90;;;7.25;;
21804;SDS011;11064;47.102;15.452;2023-08-21T11:41:05;8.40;;;6.70;;
21804;SDS011;11064;47.102;15.452;2023-08-21T11:43:41;7.65;;;6.72;;
21804;SDS011;11064;47.102;15.452;2023-08-21T11:46:09;8.35;;;6.53;;
21804;SDS011;11064;47.102;15.452;2023-08-21T11:48:39;7.18;;;6.03;;
21804;SDS011;11064;47.102;15.452;2023-08-21T11:51:09;6.90;;;6.10;;
21804;SDS011;11064;47.102;15.452;2023-08-21T11:53:36;9.35;;;6.13;;
21804;SDS011;11064;47.102;15.452;2023-08-21T11:56:11;7.35;;;5.78;;
21804;SDS011;11064;47.102;15.452;2023-08-21T11:58:44;6.38;;;5.78;;
21804;SDS011;11064;47.102;15.452;2023-08-21T12:01:18;7.05;;;5.93;;
21804;SDS011;11064;47.102;15.452;2023-08-21T12:03:44;7.40;;;5.90;;
21804;SDS011;11064;47.102;15.452;2023-08-21T12:06:11;7.28;;;6.20;;
21804;SDS011;11064;47.102;15.452;2023-08-21T12:08:40;6.68;;;5.82;;
21804;SDS011;11064;47.102;15.452;2023-08-21T12:11:06;7.28;;;6.03;;
21804;SDS011;11064;47.102;15.452;2023-08-21T12:13:35;6.25;;;5.47;;
21804;SDS011;11064;47.102;15.452;2023-08-21T12:16:01;7.32;;;5.95;;
21804;SDS011;11064;47.102;15.452;2023-08-21T12:18:27;7.72;;;6.20;;
21804;SDS011;11064;47.102;15.452;2023-08-21T12:20:53;6.22;;;5.60;;
21804;SDS011;11064;47.102;15.452;2023-08-21T12:23:19;7.05;;;6.10;;
21804;SDS011;11064;47.102;15.452;2023-08-21T12:25:45;9.02;;;6.25;;
21804;SDS011;11064;47.102;15.452;2023-08-21T12:28:11;12.25;;;5.90;;
21804;SDS011;11064;47.102;15.452;2023-08-21T12:30:36;7.65;;;6.22;;
21804;SDS011;11064;47.102;15.452;2023-08-21T12:33:02;6.95;;;6.22;;
21804;SDS011;11064;47.102;15.452;2023-08-21T12:35:28;8.20;;;6.25;;
21804;SDS011;11064;47.102;15.452;2023-08-21T12:37:55;8.15;;;6.63;;
21804;SDS011;11064;47.102;15.452;2023-08-21T12:40:22;8.05;;;6.07;;
21804;SDS011;11064;47.102;15.452;2023-08-21T12:42:48;7.32;;;6.05;;
21804;SDS011;11064;47.102;15.452;2023-08-21T12:45:15;8.00;;;6.07;;
21804;SDS011;11064;47.102;15.452;2023-08-21T12:47:42;7.65;;;6.30;;
21804;SDS011;11064;47.102;15.452;2023-08-21T12:50:08;6.75;;;6.10;;
21804;SDS011;11064;47.102;15.452;2023-08-21T12:52:34;7.60;;;5.88;;
21804;SDS011;11064;47.102;15.452;2023-08-21T12:55:00;9.63;;;6.30;;
21804;SDS011;11064;47.102;15.452;2023-08-21T12:57:30;8.25;;;6.35;;
21804;SDS011;11064;47.102;15.452;2023-08-21T12:59:56;8.02;;;6.38;;
21804;SDS011;11064;47.102;15.452;2023-08-21T13:02:21;7.57;;;5.75;;
21804;SDS011;11064;47.102;15.452;2023-08-21T13:04:48;8.13;;;6.10;;
21804;SDS011;11064;47.102;15.452;2023-08-21T13:07:14;6.65;;;5.80;;
21804;SDS011;11064;47.102;15.452;2023-08-21T13:09:40;9.93;;;5.78;;
21804;SDS011;11064;47.102;15.452;2023-08-21T13:12:06;9.73;;;6.22;;
21804;SDS011;11064;47.102;15.452;2023-08-21T13:14:33;8.85;;;5.85;;
21804;SDS011;11064;47.102;15.452;2023-08-21T13:16:59;8.18;;;5.78;;
21804;SDS011;11064;47.102;15.452;2023-08-21T13:19:25;7.43;;;6.05;;
21804;SDS011;11064;47.102;15.452;2023-08-21T13:21:51;6.45;;;5.82;;
21804;SDS011;11064;47.102;15.452;2023-08-21T13:24:19;7.40;;;6.32;;
21804;SDS011;11064;47.102;15.452;2023-08-21T13:26:46;8.93;;;6.07;;
21804;SDS011;11064;47.102;15.452;2023-08-21T13:29:11;7.28;;;6.28;;
21804;SDS011;11064;47.102;15.452;2023-08-21T13:31:37;6.88;;;5.95;;
21804;SDS011;11064;47.102;15.452;2023-08-21T13:34:03;7.65;;;6.00;;
21804;SDS011;11064;47.102;15.452;2023-08-21T13:36:29;6.70;;;6.00;;
21804;SDS011;11064;47.102;15.452;2023-08-21T13:38:55;8.90;;;6.10;;
21804;SDS011;11064;47.102;15.452;2023-08-21T13:41:21;8.30;;;5.90;;
21804;SDS011;11064;47.102;15.452;2023-08-21T13:43:47;6.80;;;6.05;;
21804;SDS011;11064;47.102;15.452;2023-08-21T13:46:12;6.50;;;5.80;;
21804;SDS011;11064;47.102;15.452;2023-08-21T13:48:39;9.82;;;5.75;;
21804;SDS011;11064;47.102;15.452;2023-08-21T13:51:04;6.55;;;5.40;;
21804;SDS011;11064;47.102;15.452;2023-08-21T13:53:30;7.65;;;5.75;;
21804;SDS011;11064;47.102;15.452;2023-08-21T13:55:56;6.75;;;6.10;;
21804;SDS011;11064;47.102;15.452;2023-08-21T13:58:22;6.18;;;5.55;;
21804;SDS011;11064;47.102;15.452;2023-08-21T14:00:48;6.97;;;5.50;;
21804;SDS011;11064;47.102;15.452;2023-08-21T14:03:14;6.10;;;5.50;;
21804;SDS011;11064;47.102;15.452;2023-08-21T14:05:40;7.60;;;5.68;;
21804;SDS011;11064;47.102;15.452;2023-08-21T14:08:06;6.85;;;5.85;;
21804;SDS011;11064;47.102;15.452;2023-08-21T14:10:32;7.97;;;5.70;;
21804;SDS011;11064;47.102;15.452;2023-08-21T14:12:57;6.75;;;5.70;;
21804;SDS011;11064;47.102;15.452;2023-08-21T14:15:23;6.30;;;5.70;;
21804;SDS011;11064;47.102;15.452;2023-08-21T14:17:49;6.53;;;5.90;;
21804;SDS011;11064;47.102;15.452;2023-08-21T14:20:15;6.43;;;5.57;;
21804;SDS011;11064;47.102;15.452;2023-08-21T14:22:41;6.70;;;5.60;;
21804;SDS011;11064;47.102;15.452;2023-08-21T14:25:07;6.85;;;5.57;;
21804;SDS011;11064;47.102;15.452;2023-08-21T14:27:33;7.05;;;6.03;;
21804;SDS011;11064;47.102;15.452;2023-08-21T14:29:59;8.05;;;6.07;;
21804;SDS011;11064;47.102;15.452;2023-08-21T14:32:25;7.55;;;5.93;;
21804;SDS011;11064;47.102;15.452;2023-08-21T14:34:51;7.70;;;6.30;;
21804;SDS011;11064;47.102;15.452;2023-08-21T14:37:18;7.72;;;6.25;;
21804;SDS011;11064;47.102;15.452;2023-08-21T14:39:48;7.15;;;6.18;;
21804;SDS011;11064;47.102;15.452;2023-08-21T14:42:14;8.05;;;6.38;;
21804;SDS011;11064;47.102;15.452;2023-08-21T14:44:40;8.68;;;6.30;;
21804;SDS011;11064;47.102;15.452;2023-08-21T14:47:06;9.55;;;6.40;;
21804;SDS011;11064;47.102;15.452;2023-08-21T14:49:32;9.18;;;6.65;;
21804;SDS011;11064;47.102;15.452;2023-08-21T14:51:58;10.93;;;6.60;;
21804;SDS011;11064;47.102;15.452;2023-08-21T14:54:24;8.32;;;6.47;;
21804;SDS011;11064;47.102;15.452;2023-08-21T14:56:50;8.10;;;6.35;;
21804;SDS011;11064;47.102;15.452;2023-08-21T14:59:16;7.10;;;6.20;;
21804;SDS011;11064;47.102;15.452;2023-08-21T15:01:42;12.65;;;6.35;;
21804;SDS011;11064;47.102;15.452;2023-08-21T15:04:08;7.10;;;6.40;;
21804;SDS011;11064;47.102;15.452;2023-08-21T15:06:34;7.20;;;6.50;;
21804;SDS011;11064;47.102;15.452;2023-08-21T15:09:02;7.93;;;6.53;;
21804;SDS011;11064;47.102;15.452;2023-08-21T15:11:30;9.57;;;6.68;;
21804;SDS011;11064;47.102;15.452;2023-08-21T15:13:56;7.80;;;7.00;;
21804;SDS011;11064;47.102;15.452;2023-08-21T15:16:21;7.43;;;6.72;;
21804;SDS011;11064;47.102;15.452;2023-08-21T15:18:47;7.68;;;6.65;;
21804;SDS011;11064;47.102;15.452;2023-08-21T15:21:17;8.63;;;6.97;;
21804;SDS011;11064;47.102;15.452;2023-08-21T15:23:43;10.05;;;7.35;;
21804;SDS011;11064;47.102;15.452;2023-08-21T15:26:09;8.50;;;6.88;;
21804;SDS011;11064;47.102;15.452;2023-08-21T15:28:35;7.40;;;6.70;;
21804;SDS011;11064;47.102;15.452;2023-08-21T15:31:01;7.88;;;6.93;;
21804;SDS011;11064;47.102;15.452;2023-08-21T15:33:28;7.57;;;6.78;;
21804;SDS011;11064;47.102;15.452;2023-08-21T15:35:54;7.38;;;6.53;;
21804;SDS011;11064;47.102;15.452;2023-08-21T15:38:20;7.95;;;6.75;;
21804;SDS011;11064;47.102;15.452;2023-08-21T15:40:46;7.38;;;6.68;;
21804;SDS011;11064;47.102;15.452;2023-08-21T15:43:11;9.13;;;7.07;;
21804;SDS011;11064;47.102;15.452;2023-08-21T15:45:38;8.45;;;6.70;;
21804;SDS011;11064;47.102;15.452;2023-08-21T15:48:04;8.68;;;6.97;;
21804;SDS011;11064;47.102;15.452;2023-08-21T15:50:30;8.45;;;7.10;;
21804;SDS011;11064;47.102;15.452;2023-08-21T15:52:56;9.00;;;7.63;;
21804;SDS011;11064;47.102;15.452;2023-08-21T15:55:22;8.52;;;6.97;;
21804;SDS011;11064;47.102;15.452;2023-08-21T15:57:48;11.43;;;7.30;;
21804;SDS011;11064;47.102;15.452;2023-08-21T16:00:14;8.10;;;6.80;;
21804;SDS011;11064;47.102;15.452;2023-08-21T16:02:40;8.18;;;7.10;;
21804;SDS011;11064;47.102;15.452;2023-08-21T16:05:06;9.07;;;7.28;;
21804;SDS011;11064;47.102;15.452;2023-08-21T16:07:33;8.88;;;7.20;;
21804;SDS011;11064;47.102;15.452;2023-08-21T16:10:00;7.88;;;7.07;;
21804;SDS011;11064;47.102;15.452;2023-08-21T16:12:26;9.32;;;7.25;;
21804;SDS011;11064;47.102;15.452;2023-08-21T16:14:51;8.27;;;7.32;;
21804;SDS011;11064;47.102;15.452;2023-08-21T16:17:17;9.02;;;7.03;;
21804;SDS011;11064;47.102;15.452;2023-08-21T16:19:45;9.63;;;7.18;;
21804;SDS011;11064;47.102;15.452;2023-08-21T16:22:11;10.25;;;7.55;;
21804;SDS011;11064;47.102;15.452;2023-08-21T16:24:37;8.77;;;7.15;;
21804;SDS011;11064;47.102;15.452;2023-08-21T16:27:02;8.27;;;7.35;;
21804;SDS011;11064;47.102;15.452;2023-08-21T16:29:28;8.32;;;7.40;;
21804;SDS011;11064;47.102;15.452;2023-08-21T16:31:54;10.50;;;7.15;;
21804;SDS011;11064;47.102;15.452;2023-08-21T16:34:20;8.90;;;6.80;;
21804;SDS011;11064;47.102;15.452;2023-08-21T16:36:46;8.07;;;7.05;;
21804;SDS011;11064;47.102;15.452;2023-08-21T16:39:12;8.80;;;7.03;;
21804;SDS011;11064;47.102;15.452;2023-08-21T16:41:37;9.05;;;7.03;;
21804;SDS011;11064;47.102;15.452;2023-08-21T16:44:03;8.23;;;6.95;;
21804;SDS011;11064;47.102;15.452;2023-08-21T16:46:29;7.88;;;7.07;;
21804;SDS011;11064;47.102;15.452;2023-08-21T16:48:55;10.20;;;7.60;;
21804;SDS011;11064;47.102;15.452;2023-08-21T16:51:21;8.45;;;7.53;;
21804;SDS011;11064;47.102;15.452;2023-08-21T16:53:47;8.45;;;7.55;;
21804;SDS011;11064;47.102;15.452;2023-08-21T16:56:13;9.95;;;7.53;;
21804;SDS011;11064;47.102;15.452;2023-08-21T16:58:38;9.48;;;7.43;;
21804;SDS011;11064;47.102;15.452;2023-08-21T17:01:04;9.45;;;6.90;;
21804;SDS011;11064;47.102;15.452;2023-08-21T17:03:30;9.45;;;7.43;;
21804;SDS011;11064;47.102;15.452;2023-08-21T17:05:56;8.75;;;7.25;;
21804;SDS011;11064;47.102;15.452;2023-08-21T17:08:22;7.85;;;7.05;;
21804;SDS011;11064;47.102;15.452;2023-08-21T17:10:48;8.52;;;7.55;;
21804;SDS011;11064;47.102;15.452;2023-08-21T17:13:14;12.73;;;7.47;;
21804;SDS011;11064;47.102;15.452;2023-08-21T17:15:40;9.98;;;7.40;;
21804;SDS011;11064;47.102;15.452;2023-08-21T17:18:06;7.75;;;6.93;;
21804;SDS011;11064;47.102;15.452;2023-08-21T17:20:32;9.98;;;7.60;;
21804;SDS011;11064;47.102;15.452;2023-08-21T17:22:59;9.68;;;7.30;;
21804;SDS011;11064;47.102;15.452;2023-08-21T17:25:25;8.18;;;7.38;;
21804;SDS011;11064;47.102;15.452;2023-08-21T17:27:51;9.45;;;7.63;;
21804;SDS011;11064;47.102;15.452;2023-08-21T17:30:17;9.48;;;8.00;;
21804;SDS011;11064;47.102;15.452;2023-08-21T17:32:43;8.25;;;7.30;;
21804;SDS011;11064;47.102;15.452;2023-08-21T17:35:12;10.82;;;7.72;;
21804;SDS011;11064;47.102;15.452;2023-08-21T17:37:38;8.40;;;7.45;;
21804;SDS011;11064;47.102;15.452;2023-08-21T17:40:05;11.65;;;8.10;;
21804;SDS011;11064;47.102;15.452;2023-08-21T17:42:32;9.68;;;8.05;;
21804;SDS011;11064;47.102;15.452;2023-08-21T17:44:59;10.75;;;7.53;;
21804;SDS011;11064;47.102;15.452;2023-08-21T17:47:25;9.43;;;7.55;;
21804;SDS011;11064;47.102;15.452;2023-08-21T17:49:52;9.75;;;7.70;;
21804;SDS011;11064;47.102;15.452;2023-08-21T17:52:17;9.88;;;8.10;;
21804;SDS011;11064;47.102;15.452;2023-08-21T17:54:44;9.25;;;7.97;;
21804;SDS011;11064;47.102;15.452;2023-08-21T17:57:10;11.57;;;8.52;;
21804;SDS011;11064;47.102;15.452;2023-08-21T17:59:36;10.10;;;8.27;;
21804;SDS011;11064;47.102;15.452;2023-08-21T18:02:02;9.07;;;7.50;;
21804;SDS011;11064;47.102;15.452;2023-08-21T18:04:28;10.95;;;8.55;;
21804;SDS011;11064;47.102;15.452;2023-08-21T18:06:55;9.93;;;8.25;;
21804;SDS011;11064;47.102;15.452;2023-08-21T18:09:21;10.55;;;8.73;;
21804;SDS011;11064;47.102;15.452;2023-08-21T18:11:47;9.60;;;8.50;;
21804;SDS011;11064;47.102;15.452;2023-08-21T18:14:13;13.63;;;8.18;;
21804;SDS011;11064;47.102;15.452;2023-08-21T18:16:40;9.00;;;7.85;;
21804;SDS011;11064;47.102;15.452;2023-08-21T18:19:11;12.10;;;7.75;;
21804;SDS011;11064;47.102;15.452;2023-08-21T18:21:39;12.32;;;7.82;;
21804;SDS011;11064;47.102;15.452;2023-08-21T18:24:05;10.40;;;7.88;;
21804;SDS011;11064;47.102;15.452;2023-08-21T18:26:32;9.88;;;8.02;;